East Taunton, Massachusetts
Current Conditions -  °F | °C
As of 10:52 PM on Sunday 21 Dec 2014 (Local Time) from KTAN Reporting Station
Overcast Overcast  
Wind Chill: 35°   Ceiling: 1200
Heat Index: 35°   Visibility: 10mi
Dew Point: 31°   Wind: 3mph
Humidity: 85%   Direction: 350°N
Pressure: 30.35"   Gusts: NA
Location:  41.88°N, 71.03°W
Report Text: KTAN 220352Z AUTO 35003KT 10SM OVC012 02/M01 A3035 RMK AO2 SLP276 T00171006
Loading
Personal Weather Stations






























Interactive Weather Map New forecast layout! Learn more

10-Day Weather Forecast

Advertisements
Track Severe Weather on mobile